Star Herdla — LAVD4 — position and weather

sailwx.info

Track history (hours):
 
Tides and Currents Weather Stations Pressure Air Temp Water Temp Dewpoint Dewpoint Depression Visibility Wind Speed Wind Dir Waves Ship Positions

Star Herdla

Last reported at 2016-Feb-13 15:06 UTC. Time now 2016-Feb-14 05:53 UTC.
Position N 38°39' E 014°55'.

Type: Cargo ship. MMSI: 258954000.

Date/timePositionNaut miles runAvg speedWind from/ knotsBaromVisibWave heightAir tempDewpointWater temp
2016-Feb-13 15:06N 38°39' E 014°55'814.6
2016-Feb-13 14:32N 38°35' E 015°04'1515.0
2016-Feb-13 13:33N 38°27' E 015°21'1514.8
2016-Feb-13 12:33N 38°21' E 015°38'7 7.2
2016-Feb-13 11:33N 38°14' E 015°37'1514.8
2016-Feb-13 10:33N 37°59' E 015°37'40910.8
2016-Feb-11 20:33N 44°26' E 012°42'15 0.7
2016-Feb-11 00:31N 44°40' E 012°37'1414.3
2016-Feb-10 23:32N 44°50' E 012°51'1414.3
2016-Feb-10 22:33N 45°02' E 013°01'1615.6
2016-Feb-10 21:34N 45°18' E 013°01'  
2016-Feb-08 01:24N 37°51' E 015°45'1113.4
2016-Feb-08 00:33N 37°59' E 015°35'1312.7
2016-Feb-07 23:33N 38°12' E 015°35'9 9.0
2016-Feb-07 22:33N 38°21' E 015°37'1413.6
2016-Feb-07 21:33N 38°27' E 015°21'1515.2
2016-Feb-07 20:33N 38°33' E 015°04'35714.3
2016-Feb-06 19:33N 43°11' E 010°08'1514.8
2016-Feb-06 18:33N 43°26' E 010°11'9 9.0
2016-Feb-06 17:33N 43°33' E 010°18'0 0.0
2016-Feb-06 16:32N 43°33' E 010°18'0 0.0
2016-Feb-06 15:31N 43°33' E 010°18'0 0.0
2016-Feb-06 14:32N 43°33' E 010°18'0 0.0
2016-Feb-06 13:31N 43°33' E 010°18'0 0.0
2016-Feb-06 12:31N 43°33' E 010°18'0 0.0
2016-Feb-06 11:31N 43°33' E 010°18'0 0.0
2016-Feb-06 10:31N 43°33' E 010°18'0 0.0
2016-Feb-06 09:31N 43°33' E 010°18'0 0.0
2016-Feb-06 08:31N 43°33' E 010°18'0 0.0
2016-Feb-06 07:31N 43°33' E 010°18'0 0.0
2016-Feb-06 06:31N 43°33' E 010°18'0 0.0
2016-Feb-06 05:31N 43°33' E 010°18'0 0.0
2016-Feb-06 04:31N 43°33' E 010°18'0 0.0
2016-Feb-06 03:31N 43°33' E 010°18'0 0.0
2016-Feb-06 02:31N 43°33' E 010°18'0 0.0
2016-Feb-06 01:31N 43°33' E 010°18'0 0.0
2016-Feb-06 00:31N 43°33' E 010°18'0 0.0
2016-Feb-05 23:31N 43°33' E 010°18'0 0.0
2016-Feb-05 22:31N 43°33' E 010°18'0 0.0
2016-Feb-05 21:31N 43°33' E 010°18'0 0.0
2016-Feb-05 20:31N 43°33' E 010°18'0 0.0
2016-Feb-05 19:31N 43°33' E 010°18'0 0.0
2016-Feb-05 18:31N 43°33' E 010°18'0 0.0
2016-Feb-05 17:31N 43°33' E 010°18'0 0.0
2016-Feb-05 16:31N 43°33' E 010°18'0 0.0
2016-Feb-05 15:31N 43°33' E 010°18'0 0.0
2016-Feb-05 14:31N 43°33' E 010°18'0 0.0
2016-Feb-04 22:31N 43°33' E 010°18'1 0.7
2016-Feb-04 21:33N 43°33' E 010°17'3 3.0
2016-Feb-04 20:33N 43°30' E 010°16'0 0.0
2016-Feb-04 19:33N 43°30' E 010°16'0 0.0
2016-Feb-04 18:33N 43°30' E 010°16'0 0.0
2016-Feb-04 17:33N 43°30' E 010°16'0 0.3
2016-Feb-04 16:33N 43°30' E 010°16'5 5.4
2016-Feb-04 15:33N 43°26' E 010°10'1313.5
2016-Feb-04 14:34N 43°17' E 009°56'1514.8
2016-Feb-04 13:33N 43°15' E 009°36'1515.3
2016-Feb-04 12:34N 43°15' E 009°15'  
Track history (hours):
 
Tides and Currents Weather Stations Pressure Air Temp Water Temp Dewpoint Dewpoint Depression Visibility Wind Speed Wind Dir Waves Ship Positions

Star Herdla

Last reported at 2016-Feb-13 15:06 UTC. Time now 2016-Feb-14 05:53 UTC.
Position N 38°39' E 014°55'.

Type: Cargo ship. MMSI: 258954000.

Date/timePositionNaut miles runAvg speedWind from/ knotsBaromVisibWave heightAir tempDewpointWater temp
2016-Feb-13 15:06N 38°39' E 014°55'814.6
2016-Feb-13 14:32N 38°35' E 015°04'1515.0
2016-Feb-13 13:33N 38°27' E 015°21'1514.8
2016-Feb-13 12:33N 38°21' E 015°38'7 7.2
2016-Feb-13 11:33N 38°14' E 015°37'1514.8
2016-Feb-13 10:33N 37°59' E 015°37'40910.8
2016-Feb-11 20:33N 44°26' E 012°42'15 0.7
2016-Feb-11 00:31N 44°40' E 012°37'1414.3
2016-Feb-10 23:32N 44°50' E 012°51'1414.3
2016-Feb-10 22:33N 45°02' E 013°01'1615.6
2016-Feb-10 21:34N 45°18' E 013°01'  
2016-Feb-08 01:24N 37°51' E 015°45'1113.4
2016-Feb-08 00:33N 37°59' E 015°35'1312.7
2016-Feb-07 23:33N 38°12' E 015°35'9 9.0
2016-Feb-07 22:33N 38°21' E 015°37'1413.6
2016-Feb-07 21:33N 38°27' E 015°21'1515.2
2016-Feb-07 20:33N 38°33' E 015°04'35714.3
2016-Feb-06 19:33N 43°11' E 010°08'1514.8
2016-Feb-06 18:33N 43°26' E 010°11'9 9.0
2016-Feb-06 17:33N 43°33' E 010°18'0 0.0
2016-Feb-06 16:32N 43°33' E 010°18'0 0.0
2016-Feb-06 15:31N 43°33' E 010°18'0 0.0
2016-Feb-06 14:32N 43°33' E 010°18'0 0.0
2016-Feb-06 13:31N 43°33' E 010°18'0 0.0
2016-Feb-06 12:31N 43°33' E 010°18'0 0.0
2016-Feb-06 11:31N 43°33' E 010°18'0 0.0
2016-Feb-06 10:31N 43°33' E 010°18'0 0.0
2016-Feb-06 09:31N 43°33' E 010°18'0 0.0
2016-Feb-06 08:31N 43°33' E 010°18'0 0.0
2016-Feb-06 07:31N 43°33' E 010°18'0 0.0
2016-Feb-06 06:31N 43°33' E 010°18'0 0.0
2016-Feb-06 05:31N 43°33' E 010°18'0 0.0
2016-Feb-06 04:31N 43°33' E 010°18'0 0.0
2016-Feb-06 03:31N 43°33' E 010°18'0 0.0
2016-Feb-06 02:31N 43°33' E 010°18'0 0.0
2016-Feb-06 01:31N 43°33' E 010°18'0 0.0
2016-Feb-06 00:31N 43°33' E 010°18'0 0.0
2016-Feb-05 23:31N 43°33' E 010°18'0 0.0
2016-Feb-05 22:31N 43°33' E 010°18'0 0.0
2016-Feb-05 21:31N 43°33' E 010°18'0 0.0
2016-Feb-05 20:31N 43°33' E 010°18'0 0.0
2016-Feb-05 19:31N 43°33' E 010°18'0 0.0
2016-Feb-05 18:31N 43°33' E 010°18'0 0.0
2016-Feb-05 17:31N 43°33' E 010°18'0 0.0
2016-Feb-05 16:31N 43°33' E 010°18'0 0.0
2016-Feb-05 15:31N 43°33' E 010°18'0 0.0
2016-Feb-05 14:31N 43°33' E 010°18'0 0.0
2016-Feb-04 22:31N 43°33' E 010°18'1 0.7
2016-Feb-04 21:33N 43°33' E 010°17'3 3.0
2016-Feb-04 20:33N 43°30' E 010°16'0 0.0
2016-Feb-04 19:33N 43°30' E 010°16'0 0.0
2016-Feb-04 18:33N 43°30' E 010°16'0 0.0
2016-Feb-04 17:33N 43°30' E 010°16'0 0.3
2016-Feb-04 16:33N 43°30' E 010°16'5 5.4
2016-Feb-04 15:33N 43°26' E 010°10'1313.5
2016-Feb-04 14:34N 43°17' E 009°56'1514.8
2016-Feb-04 13:33N 43°15' E 009°36'1515.3
2016-Feb-04 12:34N 43°15' E 009°15'  

Dump ship's entire track history